Salipta, Alabama
Current Conditions -  °F | °C
As of 12:10 PM on Monday 22 Dec 2014 (Local Time) from KGZH Reporting Station
Overcast Overcast  
Wind Chill: 60°   Ceiling: 500
Heat Index: 60°   Visibility: 10mi
Dew Point: 57°   Wind: 5mph
Humidity: 90%   Direction: 80°E
Pressure: 29.84"   Gusts: NA
Location:  31.4434°N, 87.8529°W
Report Text: KGZH 221810Z AUTO 08004KT 10SM OVC005 16/14 A2984 RMK AO2 LTG DSNT W-N T01560139
Loading
Personal Weather Stations






























Interactive Weather Map New forecast layout! Learn more

10-Day Weather Forecast

Advertisements
Track Severe Weather on mobile